sensor_id;sensor_type;location;lat;lon;timestamp;P1;durP1;ratioP1;P2;durP2;ratioP2
5319;SDS011;2682;49.800;9.990;2022-07-09T00:00:47;2.00;;;2.00;;
5319;SDS011;2682;49.800;9.990;2022-07-09T00:03:13;2.50;;;2.00;;
5319;SDS011;2682;49.800;9.990;2022-07-09T00:05:40;2.50;;;1.00;;
5319;SDS011;2682;49.800;9.990;2022-07-09T00:08:07;1.00;;;1.00;;
5319;SDS011;2682;49.800;9.990;2022-07-09T00:10:34;1.75;;;1.75;;
5319;SDS011;2682;49.800;9.990;2022-07-09T00:13:01;1.50;;;1.50;;
5319;SDS011;2682;49.800;9.990;2022-07-09T00:15:27;2.00;;;2.00;;
5319;SDS011;2682;49.800;9.990;2022-07-09T00:17:54;2.75;;;2.00;;
5319;SDS011;2682;49.800;9.990;2022-07-09T00:20:20;4.00;;;4.00;;
5319;SDS011;2682;49.800;9.990;2022-07-09T00:22:47;1.25;;;1.00;;
5319;SDS011;2682;49.800;9.990;2022-07-09T00:25:15;2.00;;;2.00;;
5319;SDS011;2682;49.800;9.990;2022-07-09T00:27:41;1.50;;;1.50;;
5319;SDS011;2682;49.800;9.990;2022-07-09T00:30:08;1.75;;;1.50;;
5319;SDS011;2682;49.800;9.990;2022-07-09T00:32:34;3.00;;;2.25;;
5319;SDS011;2682;49.800;9.990;2022-07-09T00:35:01;1.50;;;1.00;;
5319;SDS011;2682;49.800;9.990;2022-07-09T00:37:27;2.00;;;2.00;;
5319;SDS011;2682;49.800;9.990;2022-07-09T00:39:54;1.00;;;1.00;;
5319;SDS011;2682;49.800;9.990;2022-07-09T00:42:22;2.50;;;2.00;;
5319;SDS011;2682;49.800;9.990;2022-07-09T00:44:50;2.00;;;1.75;;
5319;SDS011;2682;49.800;9.990;2022-07-09T00:47:16;2.00;;;2.00;;
5319;SDS011;2682;49.800;9.990;2022-07-09T00:49:43;2.00;;;2.00;;
5319;SDS011;2682;49.800;9.990;2022-07-09T00:52:11;2.00;;;1.00;;
5319;SDS011;2682;49.800;9.990;2022-07-09T00:54:39;1.75;;;1.75;;
5319;SDS011;2682;49.800;9.990;2022-07-09T00:57:07;2.50;;;2.50;;
5319;SDS011;2682;49.800;9.990;2022-07-09T00:59:36;1.50;;;1.50;;
5319;SDS011;2682;49.800;9.990;2022-07-09T01:02:03;3.00;;;2.00;;
5319;SDS011;2682;49.800;9.990;2022-07-09T01:04:29;2.50;;;2.00;;
5319;SDS011;2682;49.800;9.990;2022-07-09T01:06:56;2.00;;;2.00;;
5319;SDS011;2682;49.800;9.990;2022-07-09T01:09:24;2.00;;;2.00;;
5319;SDS011;2682;49.800;9.990;2022-07-09T01:11:50;2.00;;;2.00;;
5319;SDS011;2682;49.800;9.990;2022-07-09T01:14:17;2.25;;;2.25;;
5319;SDS011;2682;49.800;9.990;2022-07-09T01:16:45;2.00;;;2.00;;
5319;SDS011;2682;49.800;9.990;2022-07-09T01:19:12;1.00;;;1.00;;
5319;SDS011;2682;49.800;9.990;2022-07-09T01:21:40;4.00;;;2.75;;
5319;SDS011;2682;49.800;9.990;2022-07-09T01:24:06;2.00;;;2.00;;
5319;SDS011;2682;49.800;9.990;2022-07-09T01:26:32;2.00;;;2.00;;
5319;SDS011;2682;49.800;9.990;2022-07-09T01:29:01;2.00;;;1.50;;
5319;SDS011;2682;49.800;9.990;2022-07-09T01:31:27;2.00;;;2.00;;
5319;SDS011;2682;49.800;9.990;2022-07-09T01:33:54;2.00;;;2.00;;
5319;SDS011;2682;49.800;9.990;2022-07-09T01:36:20;2.25;;;2.25;;
5319;SDS011;2682;49.800;9.990;2022-07-09T01:38:48;1.50;;;1.50;;
5319;SDS011;2682;49.800;9.990;2022-07-09T01:41:15;3.00;;;2.00;;
5319;SDS011;2682;49.800;9.990;2022-07-09T01:43:41;2.50;;;2.50;;
5319;SDS011;2682;49.800;9.990;2022-07-09T01:46:08;2.00;;;2.00;;
5319;SDS011;2682;49.800;9.990;2022-07-09T01:48:34;2.25;;;2.25;;
5319;SDS011;2682;49.800;9.990;2022-07-09T01:51:01;3.00;;;3.00;;
5319;SDS011;2682;49.800;9.990;2022-07-09T01:53:28;2.00;;;2.00;;
5319;SDS011;2682;49.800;9.990;2022-07-09T01:55:56;2.00;;;1.75;;
5319;SDS011;2682;49.800;9.990;2022-07-09T01:58:22;4.00;;;3.00;;
5319;SDS011;2682;49.800;9.990;2022-07-09T02:00:49;2.00;;;2.00;;
5319;SDS011;2682;49.800;9.990;2022-07-09T02:03:15;2.00;;;2.00;;
5319;SDS011;2682;49.800;9.990;2022-07-09T02:05:42;2.50;;;2.50;;
5319;SDS011;2682;49.800;9.990;2022-07-09T02:08:08;2.25;;;2.25;;
5319;SDS011;2682;49.800;9.990;2022-07-09T02:10:35;2.75;;;2.75;;
5319;SDS011;2682;49.800;9.990;2022-07-09T02:13:03;2.50;;;2.50;;
5319;SDS011;2682;49.800;9.990;2022-07-09T02:15:29;4.50;;;4.50;;
5319;SDS011;2682;49.800;9.990;2022-07-09T02:17:56;2.50;;;2.50;;
5319;SDS011;2682;49.800;9.990;2022-07-09T02:20:23;3.00;;;3.00;;
5319;SDS011;2682;49.800;9.990;2022-07-09T02:22:51;6.00;;;6.00;;
5319;SDS011;2682;49.800;9.990;2022-07-09T02:25:17;3.00;;;3.00;;
5319;SDS011;2682;49.800;9.990;2022-07-09T02:27:44;2.50;;;2.50;;
5319;SDS011;2682;49.800;9.990;2022-07-09T02:30:12;4.00;;;3.00;;
5319;SDS011;2682;49.800;9.990;2022-07-09T02:32:38;1.75;;;1.75;;
5319;SDS011;2682;49.800;9.990;2022-07-09T02:35:05;3.75;;;2.25;;
5319;SDS011;2682;49.800;9.990;2022-07-09T02:37:32;4.25;;;3.00;;
5319;SDS011;2682;49.800;9.990;2022-07-09T02:39:59;1.00;;;1.00;;
5319;SDS011;2682;49.800;9.990;2022-07-09T02:42:25;2.25;;;2.25;;
5319;SDS011;2682;49.800;9.990;2022-07-09T02:44:52;3.00;;;2.50;;
5319;SDS011;2682;49.800;9.990;2022-07-09T02:47:20;2.00;;;2.00;;
5319;SDS011;2682;49.800;9.990;2022-07-09T02:49:46;2.25;;;2.25;;
5319;SDS011;2682;49.800;9.990;2022-07-09T02:52:13;2.00;;;2.00;;
5319;SDS011;2682;49.800;9.990;2022-07-09T02:54:39;2.50;;;2.00;;
5319;SDS011;2682;49.800;9.990;2022-07-09T02:57:06;2.00;;;2.00;;
5319;SDS011;2682;49.800;9.990;2022-07-09T02:59:33;2.00;;;2.00;;
5319;SDS011;2682;49.800;9.990;2022-07-09T03:01:59;2.00;;;2.00;;
5319;SDS011;2682;49.800;9.990;2022-07-09T03:04:27;2.00;;;2.00;;
5319;SDS011;2682;49.800;9.990;2022-07-09T03:06:54;2.00;;;2.00;;
5319;SDS011;2682;49.800;9.990;2022-07-09T03:09:20;5.00;;;5.00;;
5319;SDS011;2682;49.800;9.990;2022-07-09T03:11:47;3.75;;;2.50;;
5319;SDS011;2682;49.800;9.990;2022-07-09T03:14:13;3.75;;;3.75;;
5319;SDS011;2682;49.800;9.990;2022-07-09T03:16:40;4.25;;;3.75;;
5319;SDS011;2682;49.800;9.990;2022-07-09T03:19:06;2.00;;;2.00;;
5319;SDS011;2682;49.800;9.990;2022-07-09T03:21:34;5.00;;;3.75;;
5319;SDS011;2682;49.800;9.990;2022-07-09T03:24:00;4.00;;;3.75;;
5319;SDS011;2682;49.800;9.990;2022-07-09T03:26:27;2.00;;;2.00;;
5319;SDS011;2682;49.800;9.990;2022-07-09T03:28:54;2.50;;;2.00;;
5319;SDS011;2682;49.800;9.990;2022-07-09T03:31:20;5.00;;;5.00;;
5319;SDS011;2682;49.800;9.990;2022-07-09T03:33:47;3.75;;;3.75;;
5319;SDS011;2682;49.800;9.990;2022-07-09T03:36:14;2.00;;;2.00;;
5319;SDS011;2682;49.800;9.990;2022-07-09T03:38:42;2.50;;;2.50;;
5319;SDS011;2682;49.800;9.990;2022-07-09T03:41:09;5.00;;;4.75;;
5319;SDS011;2682;49.800;9.990;2022-07-09T03:43:35;5.00;;;4.75;;
5319;SDS011;2682;49.800;9.990;2022-07-09T03:46:02;3.75;;;3.75;;
5319;SDS011;2682;49.800;9.990;2022-07-09T03:48:29;3.25;;;2.50;;
5319;SDS011;2682;49.800;9.990;2022-07-09T03:50:56;3.75;;;3.75;;
5319;SDS011;2682;49.800;9.990;2022-07-09T03:53:22;4.00;;;2.50;;
5319;SDS011;2682;49.800;9.990;2022-07-09T03:55:50;3.00;;;2.00;;
5319;SDS011;2682;49.800;9.990;2022-07-09T03:58:17;2.50;;;2.50;;
5319;SDS011;2682;49.800;9.990;2022-07-09T04:00:43;3.00;;;2.00;;
5319;SDS011;2682;49.800;9.990;2022-07-09T04:03:10;4.00;;;4.00;;
5319;SDS011;2682;49.800;9.990;2022-07-09T04:05:36;4.75;;;4.75;;
5319;SDS011;2682;49.800;9.990;2022-07-09T04:08:03;4.00;;;2.00;;
5319;SDS011;2682;49.800;9.990;2022-07-09T04:10:29;2.50;;;2.50;;
5319;SDS011;2682;49.800;9.990;2022-07-09T04:12:58;2.00;;;2.00;;
5319;SDS011;2682;49.800;9.990;2022-07-09T04:15:24;4.50;;;3.00;;
5319;SDS011;2682;49.800;9.990;2022-07-09T04:17:51;2.50;;;2.50;;
5319;SDS011;2682;49.800;9.990;2022-07-09T04:20:17;3.00;;;3.00;;
5319;SDS011;2682;49.800;9.990;2022-07-09T04:22:43;3.25;;;3.00;;
5319;SDS011;2682;49.800;9.990;2022-07-09T04:25:10;3.00;;;3.00;;
5319;SDS011;2682;49.800;9.990;2022-07-09T04:27:36;3.25;;;2.50;;
5319;SDS011;2682;49.800;9.990;2022-07-09T04:30:06;3.75;;;3.75;;
5319;SDS011;2682;49.800;9.990;2022-07-09T04:32:33;4.00;;;4.00;;
5319;SDS011;2682;49.800;9.990;2022-07-09T04:35:00;4.00;;;3.75;;
5319;SDS011;2682;49.800;9.990;2022-07-09T04:37:26;5.00;;;3.75;;
5319;SDS011;2682;49.800;9.990;2022-07-09T04:39:53;2.75;;;2.50;;
5319;SDS011;2682;49.800;9.990;2022-07-09T04:42:19;3.50;;;3.50;;
5319;SDS011;2682;49.800;9.990;2022-07-09T04:44:46;2.00;;;2.00;;
5319;SDS011;2682;49.800;9.990;2022-07-09T04:47:14;4.50;;;4.25;;
5319;SDS011;2682;49.800;9.990;2022-07-09T04:49:41;5.50;;;5.50;;
5319;SDS011;2682;49.800;9.990;2022-07-09T04:52:07;3.50;;;3.00;;
5319;SDS011;2682;49.800;9.990;2022-07-09T04:54:34;3.00;;;3.00;;
5319;SDS011;2682;49.800;9.990;2022-07-09T04:57:00;4.00;;;3.00;;
5319;SDS011;2682;49.800;9.990;2022-07-09T04:59:27;2.75;;;2.75;;
5319;SDS011;2682;49.800;9.990;2022-07-09T05:01:54;3.00;;;3.00;;
5319;SDS011;2682;49.800;9.990;2022-07-09T05:04:21;4.50;;;4.50;;
5319;SDS011;2682;49.800;9.990;2022-07-09T05:06:48;3.00;;;3.00;;
5319;SDS011;2682;49.800;9.990;2022-07-09T05:09:14;3.50;;;3.50;;
5319;SDS011;2682;49.800;9.990;2022-07-09T05:11:41;5.00;;;3.50;;
5319;SDS011;2682;49.800;9.990;2022-07-09T05:14:07;7.00;;;5.00;;
5319;SDS011;2682;49.800;9.990;2022-07-09T05:16:34;3.00;;;3.00;;
5319;SDS011;2682;49.800;9.990;2022-07-09T05:19:00;2.50;;;2.50;;
5319;SDS011;2682;49.800;9.990;2022-07-09T05:21:28;3.00;;;2.00;;
5319;SDS011;2682;49.800;9.990;2022-07-09T05:23:55;3.00;;;3.00;;
5319;SDS011;2682;49.800;9.990;2022-07-09T05:26:21;2.75;;;2.75;;
5319;SDS011;2682;49.800;9.990;2022-07-09T05:28:48;4.00;;;3.00;;
5319;SDS011;2682;49.800;9.990;2022-07-09T05:31:14;3.75;;;3.00;;
5319;SDS011;2682;49.800;9.990;2022-07-09T05:33:41;5.75;;;4.75;;
5319;SDS011;2682;49.800;9.990;2022-07-09T05:36:07;3.00;;;3.00;;
5319;SDS011;2682;49.800;9.990;2022-07-09T05:38:35;3.00;;;3.00;;
5319;SDS011;2682;49.800;9.990;2022-07-09T05:41:01;2.25;;;2.25;;
5319;SDS011;2682;49.800;9.990;2022-07-09T05:43:28;5.00;;;4.00;;
5319;SDS011;2682;49.800;9.990;2022-07-09T05:45:55;3.00;;;3.00;;
5319;SDS011;2682;49.800;9.990;2022-07-09T05:48:21;3.50;;;3.25;;
5319;SDS011;2682;49.800;9.990;2022-07-09T05:50:48;4.00;;;3.50;;
5319;SDS011;2682;49.800;9.990;2022-07-09T05:53:15;5.50;;;3.00;;
5319;SDS011;2682;49.800;9.990;2022-07-09T05:55:43;3.00;;;3.00;;
5319;SDS011;2682;49.800;9.990;2022-07-09T05:58:09;3.00;;;3.00;;
5319;SDS011;2682;49.800;9.990;2022-07-09T06:00:36;3.50;;;3.00;;
5319;SDS011;2682;49.800;9.990;2022-07-09T06:03:02;2.50;;;2.50;;
5319;SDS011;2682;49.800;9.990;2022-07-09T06:05:29;2.00;;;2.00;;
5319;SDS011;2682;49.800;9.990;2022-07-09T06:07:55;2.75;;;2.75;;
5319;SDS011;2682;49.800;9.990;2022-07-09T06:10:22;3.00;;;3.00;;
5319;SDS011;2682;49.800;9.990;2022-07-09T06:12:50;2.50;;;2.50;;
5319;SDS011;2682;49.800;9.990;2022-07-09T06:15:17;2.00;;;2.00;;
5319;SDS011;2682;49.800;9.990;2022-07-09T06:17:43;3.25;;;3.00;;
5319;SDS011;2682;49.800;9.990;2022-07-09T06:20:10;2.50;;;2.50;;
5319;SDS011;2682;49.800;9.990;2022-07-09T06:22:36;4.00;;;3.75;;
5319;SDS011;2682;49.800;9.990;2022-07-09T06:25:04;3.75;;;3.00;;
5319;SDS011;2682;49.800;9.990;2022-07-09T06:27:30;3.00;;;3.00;;
5319;SDS011;2682;49.800;9.990;2022-07-09T06:29:58;4.00;;;4.00;;
5319;SDS011;2682;49.800;9.990;2022-07-09T06:32:25;5.75;;;4.25;;
5319;SDS011;2682;49.800;9.990;2022-07-09T06:34:51;3.00;;;3.00;;
5319;SDS011;2682;49.800;9.990;2022-07-09T06:37:18;3.00;;;3.00;;
5319;SDS011;2682;49.800;9.990;2022-07-09T06:39:44;3.00;;;3.00;;
5319;SDS011;2682;49.800;9.990;2022-07-09T06:42:10;3.00;;;3.00;;
5319;SDS011;2682;49.800;9.990;2022-07-09T06:44:37;2.00;;;2.00;;
5319;SDS011;2682;49.800;9.990;2022-07-09T06:47:05;3.00;;;2.00;;
5319;SDS011;2682;49.800;9.990;2022-07-09T06:49:32;2.75;;;2.75;;
5319;SDS011;2682;49.800;9.990;2022-07-09T06:51:59;3.50;;;3.00;;
5319;SDS011;2682;49.800;9.990;2022-07-09T06:54:26;2.50;;;2.50;;
5319;SDS011;2682;49.800;9.990;2022-07-09T06:56:52;3.75;;;3.75;;
5319;SDS011;2682;49.800;9.990;2022-07-09T06:59:19;3.00;;;3.00;;
5319;SDS011;2682;49.800;9.990;2022-07-09T07:01:47;3.50;;;2.75;;
5319;SDS011;2682;49.800;9.990;2022-07-09T07:04:15;3.00;;;3.00;;
5319;SDS011;2682;49.800;9.990;2022-07-09T07:06:41;3.00;;;3.00;;
5319;SDS011;2682;49.800;9.990;2022-07-09T07:09:08;3.00;;;3.00;;
5319;SDS011;2682;49.800;9.990;2022-07-09T07:11:34;3.25;;;3.25;;
5319;SDS011;2682;49.800;9.990;2022-07-09T07:14:01;3.50;;;3.00;;
5319;SDS011;2682;49.800;9.990;2022-07-09T07:16:28;4.00;;;4.00;;
5319;SDS011;2682;49.800;9.990;2022-07-09T07:18:54;3.50;;;3.25;;
5319;SDS011;2682;49.800;9.990;2022-07-09T07:21:22;4.25;;;4.00;;
5319;SDS011;2682;49.800;9.990;2022-07-09T07:23:48;3.50;;;3.50;;
5319;SDS011;2682;49.800;9.990;2022-07-09T07:26:18;3.00;;;3.00;;
5319;SDS011;2682;49.800;9.990;2022-07-09T07:28:44;4.00;;;4.00;;
5319;SDS011;2682;49.800;9.990;2022-07-09T07:31:11;6.75;;;6.00;;
5319;SDS011;2682;49.800;9.990;2022-07-09T07:33:37;5.00;;;5.00;;
5319;SDS011;2682;49.800;9.990;2022-07-09T07:36:04;5.50;;;4.75;;
5319;SDS011;2682;49.800;9.990;2022-07-09T07:38:32;6.75;;;5.00;;
5319;SDS011;2682;49.800;9.990;2022-07-09T07:40:59;5.00;;;5.00;;
5319;SDS011;2682;49.800;9.990;2022-07-09T07:43:26;4.50;;;4.25;;
5319;SDS011;2682;49.800;9.990;2022-07-09T07:45:52;4.00;;;4.00;;
5319;SDS011;2682;49.800;9.990;2022-07-09T07:48:19;3.50;;;3.50;;
5319;SDS011;2682;49.800;9.990;2022-07-09T07:50:45;5.00;;;4.50;;
5319;SDS011;2682;49.800;9.990;2022-07-09T07:53:12;5.00;;;5.00;;
5319;SDS011;2682;49.800;9.990;2022-07-09T07:55:40;6.00;;;5.00;;
5319;SDS011;2682;49.800;9.990;2022-07-09T07:58:06;5.00;;;4.50;;
5319;SDS011;2682;49.800;9.990;2022-07-09T08:00:33;5.75;;;5.25;;
5319;SDS011;2682;49.800;9.990;2022-07-09T08:02:59;7.40;;;7.40;;
5319;SDS011;2682;49.800;9.990;2022-07-09T08:05:26;8.75;;;6.50;;
5319;SDS011;2682;49.800;9.990;2022-07-09T08:07:52;5.25;;;5.25;;
5319;SDS011;2682;49.800;9.990;2022-07-09T08:10:19;5.00;;;4.75;;
5319;SDS011;2682;49.800;9.990;2022-07-09T08:12:47;7.40;;;7.40;;
5319;SDS011;2682;49.800;9.990;2022-07-09T08:15:13;5.20;;;5.20;;
5319;SDS011;2682;49.800;9.990;2022-07-09T08:17:40;3.00;;;3.00;;
5319;SDS011;2682;49.800;9.990;2022-07-09T08:20:07;4.00;;;4.00;;
5319;SDS011;2682;49.800;9.990;2022-07-09T08:22:34;5.00;;;5.00;;
5319;SDS011;2682;49.800;9.990;2022-07-09T08:25:01;5.80;;;5.40;;
5319;SDS011;2682;49.800;9.990;2022-07-09T08:27:27;6.00;;;6.00;;
5319;SDS011;2682;49.800;9.990;2022-07-09T08:29:55;6.50;;;5.75;;
5319;SDS011;2682;49.800;9.990;2022-07-09T08:32:22;4.50;;;4.00;;
5319;SDS011;2682;49.800;9.990;2022-07-09T08:34:48;5.00;;;4.80;;
5319;SDS011;2682;49.800;9.990;2022-07-09T08:37:15;4.00;;;4.00;;
5319;SDS011;2682;49.800;9.990;2022-07-09T08:39:41;4.75;;;4.75;;
5319;SDS011;2682;49.800;9.990;2022-07-09T08:42:08;5.20;;;5.20;;
5319;SDS011;2682;49.800;9.990;2022-07-09T08:44:37;4.00;;;4.00;;
5319;SDS011;2682;49.800;9.990;2022-07-09T08:47:05;5.00;;;4.20;;
5319;SDS011;2682;49.800;9.990;2022-07-09T08:49:32;4.80;;;4.80;;
5319;SDS011;2682;49.800;9.990;2022-07-09T08:51:58;3.00;;;3.00;;
5319;SDS011;2682;49.800;9.990;2022-07-09T08:54:27;4.00;;;4.00;;
5319;SDS011;2682;49.800;9.990;2022-07-09T08:56:54;4.00;;;3.80;;
5319;SDS011;2682;49.800;9.990;2022-07-09T08:59:20;4.00;;;4.00;;
5319;SDS011;2682;49.800;9.990;2022-07-09T09:01:50;4.50;;;4.50;;
5319;SDS011;2682;49.800;9.990;2022-07-09T09:04:18;4.00;;;4.00;;
5319;SDS011;2682;49.800;9.990;2022-07-09T09:06:45;4.25;;;4.00;;
5319;SDS011;2682;49.800;9.990;2022-07-09T09:09:16;3.00;;;3.00;;
5319;SDS011;2682;49.800;9.990;2022-07-09T09:11:46;2.00;;;2.00;;
5319;SDS011;2682;49.800;9.990;2022-07-09T09:14:17;3.00;;;3.00;;
5319;SDS011;2682;49.800;9.990;2022-07-09T09:16:43;3.00;;;3.00;;
5319;SDS011;2682;49.800;9.990;2022-07-09T09:19:13;2.00;;;2.00;;
5319;SDS011;2682;49.800;9.990;2022-07-09T09:21:41;2.80;;;2.80;;
5319;SDS011;2682;49.800;9.990;2022-07-09T09:24:07;1.50;;;1.50;;
5319;SDS011;2682;49.800;9.990;2022-07-09T09:26:34;2.00;;;2.00;;
5319;SDS011;2682;49.800;9.990;2022-07-09T09:29:03;3.00;;;3.00;;
5319;SDS011;2682;49.800;9.990;2022-07-09T09:31:30;2.75;;;2.50;;
5319;SDS011;2682;49.800;9.990;2022-07-09T09:33:58;3.00;;;3.00;;
5319;SDS011;2682;49.800;9.990;2022-07-09T09:36:28;3.50;;;3.25;;
5319;SDS011;2682;49.800;9.990;2022-07-09T09:38:56;3.50;;;3.00;;
5319;SDS011;2682;49.800;9.990;2022-07-09T09:41:32;3.00;;;3.00;;
5319;SDS011;2682;49.800;9.990;2022-07-09T09:43:59;2.75;;;2.00;;
5319;SDS011;2682;49.800;9.990;2022-07-09T09:46:30;2.75;;;2.75;;
5319;SDS011;2682;49.800;9.990;2022-07-09T09:48:57;5.00;;;3.20;;
5319;SDS011;2682;49.800;9.990;2022-07-09T09:51:23;2.75;;;2.75;;
5319;SDS011;2682;49.800;9.990;2022-07-09T09:53:51;2.00;;;2.00;;
5319;SDS011;2682;49.800;9.990;2022-07-09T09:56:20;3.25;;;3.00;;
5319;SDS011;2682;49.800;9.990;2022-07-09T09:58:48;4.00;;;4.00;;
5319;SDS011;2682;49.800;9.990;2022-07-09T10:01:14;4.40;;;4.00;;
5319;SDS011;2682;49.800;9.990;2022-07-09T10:03:43;5.00;;;5.00;;
5319;SDS011;2682;49.800;9.990;2022-07-09T10:06:12;4.20;;;4.20;;
5319;SDS011;2682;49.800;9.990;2022-07-09T10:08:38;6.00;;;4.80;;
5319;SDS011;2682;49.800;9.990;2022-07-09T10:11:05;4.40;;;4.40;;
5319;SDS011;2682;49.800;9.990;2022-07-09T10:13:33;3.00;;;3.00;;
5319;SDS011;2682;49.800;9.990;2022-07-09T10:15:59;4.40;;;3.80;;
5319;SDS011;2682;49.800;9.990;2022-07-09T10:18:26;4.20;;;3.60;;
5319;SDS011;2682;49.800;9.990;2022-07-09T10:20:54;6.00;;;5.20;;
5319;SDS011;2682;49.800;9.990;2022-07-09T10:23:21;5.00;;;5.00;;
5319;SDS011;2682;49.800;9.990;2022-07-09T10:25:48;5.60;;;4.80;;
5319;SDS011;2682;49.800;9.990;2022-07-09T10:28:17;4.00;;;4.00;;
5319;SDS011;2682;49.800;9.990;2022-07-09T10:30:46;4.00;;;4.00;;
5319;SDS011;2682;49.800;9.990;2022-07-09T10:33:13;4.40;;;4.00;;
5319;SDS011;2682;49.800;9.990;2022-07-09T10:35:40;4.60;;;4.60;;
5319;SDS011;2682;49.800;9.990;2022-07-09T10:38:07;5.80;;;5.80;;
5319;SDS011;2682;49.800;9.990;2022-07-09T10:40:37;4.00;;;4.00;;
5319;SDS011;2682;49.800;9.990;2022-07-09T10:43:04;5.00;;;5.00;;
5319;SDS011;2682;49.800;9.990;2022-07-09T10:45:37;6.00;;;6.00;;
5319;SDS011;2682;49.800;9.990;2022-07-09T10:48:05;7.80;;;7.00;;
5319;SDS011;2682;49.800;9.990;2022-07-09T10:50:35;6.00;;;6.00;;
5319;SDS011;2682;49.800;9.990;2022-07-09T10:53:02;7.00;;;6.00;;
5319;SDS011;2682;49.800;9.990;2022-07-09T10:55:28;6.20;;;6.00;;
5319;SDS011;2682;49.800;9.990;2022-07-09T10:57:55;6.00;;;6.00;;
5319;SDS011;2682;49.800;9.990;2022-07-09T11:00:23;6.80;;;6.40;;
5319;SDS011;2682;49.800;9.990;2022-07-09T11:02:53;6.00;;;5.80;;
5319;SDS011;2682;49.800;9.990;2022-07-09T11:05:21;5.00;;;5.00;;
5319;SDS011;2682;49.800;9.990;2022-07-09T11:07:55;4.80;;;4.80;;
5319;SDS011;2682;49.800;9.990;2022-07-09T11:10:21;4.40;;;4.40;;
5319;SDS011;2682;49.800;9.990;2022-07-09T11:12:48;6.00;;;6.00;;
5319;SDS011;2682;49.800;9.990;2022-07-09T11:15:17;6.00;;;5.40;;
5319;SDS011;2682;49.800;9.990;2022-07-09T11:17:44;5.00;;;5.00;;
5319;SDS011;2682;49.800;9.990;2022-07-09T11:20:19;5.60;;;5.60;;
5319;SDS011;2682;49.800;9.990;2022-07-09T11:22:47;5.40;;;5.20;;
5319;SDS011;2682;49.800;9.990;2022-07-09T11:25:14;5.80;;;5.00;;
5319;SDS011;2682;49.800;9.990;2022-07-09T11:27:40;6.40;;;6.00;;
5319;SDS011;2682;49.800;9.990;2022-07-09T11:30:10;7.00;;;6.80;;
5319;SDS011;2682;49.800;9.990;2022-07-09T11:32:37;6.00;;;5.00;;
5319;SDS011;2682;49.800;9.990;2022-07-09T11:35:04;5.80;;;5.60;;
5319;SDS011;2682;49.800;9.990;2022-07-09T11:37:31;5.00;;;5.00;;
5319;SDS011;2682;49.800;9.990;2022-07-09T11:39:59;5.20;;;5.00;;
5319;SDS011;2682;49.800;9.990;2022-07-09T11:42:25;5.00;;;5.00;;
5319;SDS011;2682;49.800;9.990;2022-07-09T11:44:55;6.00;;;6.00;;
5319;SDS011;2682;49.800;9.990;2022-07-09T11:47:30;6.00;;;6.00;;
5319;SDS011;2682;49.800;9.990;2022-07-09T11:50:03;5.40;;;5.40;;
5319;SDS011;2682;49.800;9.990;2022-07-09T11:52:30;7.20;;;7.00;;
5319;SDS011;2682;49.800;9.990;2022-07-09T11:54:59;6.80;;;6.60;;
5319;SDS011;2682;49.800;9.990;2022-07-09T11:57:26;6.60;;;6.00;;
5319;SDS011;2682;49.800;9.990;2022-07-09T11:59:53;6.80;;;6.80;;
5319;SDS011;2682;49.800;9.990;2022-07-09T12:02:24;6.00;;;6.00;;
5319;SDS011;2682;49.800;9.990;2022-07-09T12:04:50;6.00;;;6.00;;
5319;SDS011;2682;49.800;9.990;2022-07-09T12:07:17;6.00;;;5.60;;
5319;SDS011;2682;49.800;9.990;2022-07-09T12:09:43;5.40;;;5.40;;
5319;SDS011;2682;49.800;9.990;2022-07-09T12:12:11;6.00;;;6.00;;
5319;SDS011;2682;49.800;9.990;2022-07-09T12:14:38;4.00;;;4.00;;
5319;SDS011;2682;49.800;9.990;2022-07-09T12:17:04;4.60;;;4.60;;
5319;SDS011;2682;49.800;9.990;2022-07-09T12:19:31;5.40;;;5.00;;
5319;SDS011;2682;49.800;9.990;2022-07-09T12:21:57;6.60;;;6.60;;
5319;SDS011;2682;49.800;9.990;2022-07-09T12:24:24;5.00;;;4.60;;
5319;SDS011;2682;49.800;9.990;2022-07-09T12:26:50;5.00;;;5.00;;
5319;SDS011;2682;49.800;9.990;2022-07-09T12:29:18;6.40;;;6.00;;
5319;SDS011;2682;49.800;9.990;2022-07-09T12:31:45;6.80;;;6.40;;
5319;SDS011;2682;49.800;9.990;2022-07-09T12:34:11;6.60;;;6.40;;
5319;SDS011;2682;49.800;9.990;2022-07-09T12:36:38;5.60;;;5.60;;
5319;SDS011;2682;49.800;9.990;2022-07-09T12:39:06;4.80;;;4.80;;
5319;SDS011;2682;49.800;9.990;2022-07-09T12:41:33;4.40;;;4.40;;
5319;SDS011;2682;49.800;9.990;2022-07-09T12:43:59;5.60;;;5.60;;
5319;SDS011;2682;49.800;9.990;2022-07-09T12:46:27;6.00;;;6.00;;
5319;SDS011;2682;49.800;9.990;2022-07-09T12:48:54;6.00;;;6.00;;
5319;SDS011;2682;49.800;9.990;2022-07-09T12:51:20;6.80;;;6.60;;
5319;SDS011;2682;49.800;9.990;2022-07-09T12:53:47;5.40;;;5.40;;
5319;SDS011;2682;49.800;9.990;2022-07-09T12:56:13;7.40;;;7.40;;
5319;SDS011;2682;49.800;9.990;2022-07-09T12:58:40;7.00;;;6.20;;
5319;SDS011;2682;49.800;9.990;2022-07-09T13:01:06;5.40;;;5.40;;
5319;SDS011;2682;49.800;9.990;2022-07-09T13:03:34;6.00;;;6.00;;
5319;SDS011;2682;49.800;9.990;2022-07-09T13:06:01;6.00;;;6.00;;
5319;SDS011;2682;49.800;9.990;2022-07-09T13:08:27;8.00;;;7.00;;
5319;SDS011;2682;49.800;9.990;2022-07-09T13:10:54;6.00;;;6.00;;
5319;SDS011;2682;49.800;9.990;2022-07-09T13:13:21;9.20;;;7.00;;
5319;SDS011;2682;49.800;9.990;2022-07-09T13:15:47;6.40;;;6.40;;
5319;SDS011;2682;49.800;9.990;2022-07-09T13:18:13;7.00;;;7.00;;
5319;SDS011;2682;49.800;9.990;2022-07-09T13:20:42;6.00;;;5.80;;
5319;SDS011;2682;49.800;9.990;2022-07-09T13:23:09;8.00;;;8.00;;
5319;SDS011;2682;49.800;9.990;2022-07-09T13:25:35;8.60;;;8.00;;
5319;SDS011;2682;49.800;9.990;2022-07-09T13:28:02;8.60;;;8.00;;
5319;SDS011;2682;49.800;9.990;2022-07-09T13:30:29;7.00;;;7.00;;
5319;SDS011;2682;49.800;9.990;2022-07-09T13:32:55;8.00;;;8.00;;
5319;SDS011;2682;49.800;9.990;2022-07-09T13:35:22;7.20;;;7.20;;
5319;SDS011;2682;49.800;9.990;2022-07-09T13:37:50;6.60;;;5.80;;
5319;SDS011;2682;49.800;9.990;2022-07-09T13:40:17;6.60;;;6.00;;
5319;SDS011;2682;49.800;9.990;2022-07-09T13:42:44;6.20;;;6.20;;
5319;SDS011;2682;49.800;9.990;2022-07-09T13:45:10;6.40;;;6.20;;
5319;SDS011;2682;49.800;9.990;2022-07-09T13:47:40;7.00;;;6.80;;
5319;SDS011;2682;49.800;9.990;2022-07-09T13:50:07;6.00;;;6.00;;
5319;SDS011;2682;49.800;9.990;2022-07-09T13:52:33;6.00;;;6.00;;
5319;SDS011;2682;49.800;9.990;2022-07-09T13:55:01;7.80;;;7.60;;
5319;SDS011;2682;49.800;9.990;2022-07-09T13:57:28;7.00;;;6.00;;
5319;SDS011;2682;49.800;9.990;2022-07-09T13:59:55;5.00;;;4.60;;
5319;SDS011;2682;49.800;9.990;2022-07-09T14:02:21;6.40;;;6.40;;
5319;SDS011;2682;49.800;9.990;2022-07-09T14:04:48;5.80;;;5.60;;
5319;SDS011;2682;49.800;9.990;2022-07-09T14:07:14;5.00;;;5.00;;
5319;SDS011;2682;49.800;9.990;2022-07-09T14:09:41;4.20;;;4.00;;
5319;SDS011;2682;49.800;9.990;2022-07-09T14:12:09;7.00;;;6.00;;
5319;SDS011;2682;49.800;9.990;2022-07-09T14:14:36;6.00;;;5.40;;
5319;SDS011;2682;49.800;9.990;2022-07-09T14:17:02;6.80;;;6.00;;
5319;SDS011;2682;49.800;9.990;2022-07-09T14:19:29;5.00;;;5.00;;
5319;SDS011;2682;49.800;9.990;2022-07-09T14:21:55;5.20;;;5.00;;
5319;SDS011;2682;49.800;9.990;2022-07-09T14:24:22;4.60;;;4.60;;
5319;SDS011;2682;49.800;9.990;2022-07-09T14:26:48;5.40;;;5.40;;
5319;SDS011;2682;49.800;9.990;2022-07-09T14:29:17;5.00;;;4.80;;
5319;SDS011;2682;49.800;9.990;2022-07-09T14:31:44;4.00;;;4.00;;
5319;SDS011;2682;49.800;9.990;2022-07-09T14:34:10;5.40;;;5.40;;
5319;SDS011;2682;49.800;9.990;2022-07-09T14:36:37;4.80;;;4.00;;
5319;SDS011;2682;49.800;9.990;2022-07-09T14:39:03;4.40;;;4.40;;
5319;SDS011;2682;49.800;9.990;2022-07-09T14:41:30;4.40;;;4.00;;
5319;SDS011;2682;49.800;9.990;2022-07-09T14:43:57;5.00;;;4.80;;
5319;SDS011;2682;49.800;9.990;2022-07-09T14:46:25;5.80;;;5.00;;
5319;SDS011;2682;49.800;9.990;2022-07-09T14:48:52;4.60;;;4.40;;
5319;SDS011;2682;49.800;9.990;2022-07-09T14:51:18;5.00;;;5.00;;
5319;SDS011;2682;49.800;9.990;2022-07-09T14:53:45;3.60;;;3.60;;
5319;SDS011;2682;49.800;9.990;2022-07-09T14:56:12;3.80;;;3.80;;
5319;SDS011;2682;49.800;9.990;2022-07-09T14:58:38;5.00;;;4.00;;
5319;SDS011;2682;49.800;9.990;2022-07-09T15:01:05;3.20;;;3.20;;
5319;SDS011;2682;49.800;9.990;2022-07-09T15:03:33;5.20;;;5.00;;
5319;SDS011;2682;49.800;9.990;2022-07-09T15:05:59;4.00;;;4.00;;
5319;SDS011;2682;49.800;9.990;2022-07-09T15:08:26;4.20;;;4.20;;
5319;SDS011;2682;49.800;9.990;2022-07-09T15:10:52;3.60;;;3.20;;
5319;SDS011;2682;49.800;9.990;2022-07-09T15:13:19;3.00;;;3.00;;